• Join FlightAware (Why Join?)
  • Login
  • US Flag 
07:28AM EDT


 

Airport Tracker/Info


-or-


 

Live Flight TrackerFlight Track Log ✈ ASQ4976 ✈ 03-May-2013 ✈ KALB - KATL

Flight Track Log - Related Links

Times and Time Zones

All times are in EDT time to prevent confusion due to time zone crossing. See the ASQ4976 flight status page for this flight to view local times or setup timezone preferences in your user account.

Time Position Orientation Groundspeed Altitude Reporting Facility
EDT Latitude Longitude Course Direction KTS MPH feet Rate Location/Type
12:48PM 42.7194 -73.8078 238° Southwest 167 192 1,500  Level Boston Center
12:49PM 42.6722 -73.9086 238° Southwest 225 259 4,600 1,920 Climbing Boston Center
12:50PM 42.6522 -74.0069 255° West 262 302 6,900 2,400 Climbing Boston Center
12:51PM 42.6300 -74.1106 254° West 279 321 9,500 2,400 Climbing Boston Center
12:52PM 42.6075 -74.2089 253° West 296 341 11,800 2,100 Climbing Boston Center
12:53PM 42.5619 -74.3175 240° Southwest 307 353 13,700 1,620 Climbing Boston Center
12:54PM 42.4919 -74.2731 155° Southeast 261 300 15,100 1,320 Climbing Boston Center
12:55PM 42.4375 -74.1506 121° Southeast 316 364 16,400 1,200 Climbing Boston Center
12:56PM 42.3467 -74.0947 156° South 385 443 17,600 1,200 Climbing Boston Center
12:57PM 42.2286 -74.0356 160° South 405 466 18,900 1,260 Climbing Boston Center
12:58PM 42.1183 -74.0383 181° South 414 476 20,200 1,440 Climbing Boston Center
12:59PM 41.9847 -74.0517 184° South 426 490 21,800 1,500 Climbing Boston Center
01:00PM 41.8614 -74.0597 183° South 443 510 23,300 1,260 Climbing Boston Center
01:01PM 41.7578 -74.0208 164° South 448 516 24,400 1,020 Climbing Boston Center
01:02PM 41.6614 -73.9183 142° Southeast 417 480 25,400 1,020 Climbing Boston Center
01:03PM 41.5817 -73.7861 129° Southeast 431 496 26,500 1,020 Climbing Boston Center
01:04PM 41.5167 -73.6433 121° Southeast 431 496 27,500 960 Climbing Boston Center
01:05PM 41.4050 -73.5636 152° Southeast 436 502 28,500 900 Climbing Boston Center
01:08PM 41.1875 -73.7983 219° Southwest 408 470 30,500 840 Climbing New York Center
01:09PM 41.1128 -73.9408 235° Southwest 445 512 31,300 780 Climbing New York Center
01:10PM 41.0339 -74.0858 234° Southwest 468 539 32,100 660 Climbing New York Center
01:11PM 40.9481 -74.2408 234° Southwest 480 552 32,700 600 Climbing New York Center
01:12PM 40.8667 -74.3847 233° Southwest 490 564 33,400 660 Climbing New York Center
01:13PM 40.7914 -74.5289 235° Southwest 495 570 34,000 300 Climbing New York Center
01:14PM 40.7161 -74.6697 235° Southwest 490 564 34,000  Level New York Center
01:15PM 40.6406 -74.8078 234° Southwest 480 552 34,000  Level New York Center
01:16PM 40.5650 -74.9453 234° Southwest 480 552 34,000  Level New York Center
01:17PM 40.4914 -75.0800 234° Southwest 475 547 34,000  Level New York Center
01:18PM 40.4175 -75.2144 234° Southwest 470 541 34,000  Level New York Center
01:19PM 40.3436 -75.3486 234° Southwest 460 529 34,000  Level New York Center
01:20PM 40.2475 -75.4592 221° Southwest 460 529 34,000  Level New York Center
01:21PM 40.1375 -75.5550 214° Southwest 460 529 34,000  Level New York Center
01:22PM 40.0389 -75.6703 222° Southwest 472 543 34,000  Level New York Center
01:23PM 39.9603 -75.8056 233° Southwest 472 543 34,000  Level New York Center
01:24PM 39.8814 -75.9406 233° Southwest 472 543 34,000  Level New York Center
01:25PM 39.8025 -76.0725 232° Southwest 478 550 34,000  Level New York Center
01:28PM 39.5836 -76.4369 232° Southwest 477 549 34,000  Level Washington Center
01:29PM 39.5014 -76.5650 230° Southwest 477 549 34,000  Level Washington Center
01:30PM 39.4211 -76.6958 232° Southwest 477 549 34,000  Level Washington Center
01:31PM 39.3406 -76.8286 232° Southwest 472 543 34,000  Level Washington Center
01:31PM 39.2619 -76.9586 232° Southwest 472 543 34,000  Level Washington Center
01:32PM 39.1833 -77.0883 232° Southwest 472 543 34,000  Level Washington Center
01:34PM 39.1003 -77.2206 231° Southwest 472 543 34,000  Level Washington Center
01:35PM 39.0214 -77.3469 231° Southwest 466 536 34,000  Level Washington Center
01:36PM 38.9444 -77.4733 232° Southwest 466 536 34,000  Level Washington Center
01:36PM 38.8567 -77.6150 232° Southwest 471 542 34,000  Level Washington Center
01:37PM 38.7819 -77.7300 230° Southwest 466 536 34,000  Level Washington Center
01:39PM 38.7022 -77.8608 232° Southwest 466 536 34,000  Level Washington Center
01:40PM 38.6164 -77.9964 231° Southwest 466 536 34,000  Level Washington Center
01:40PM 38.5386 -78.1186 231° Southwest 459 528 34,000  Level Washington Center
01:41PM 38.4589 -78.2458 231° Southwest 459 528 34,000  Level Washington Center
01:43PM 38.3767 -78.3728 230° Southwest 459 528 34,000  Level Washington Center
01:44PM 38.3008 -78.4942 232° Southwest 459 528 34,000  Level Washington Center
01:44PM 38.2228 -78.6181 231° Southwest 454 522 34,000  Level Washington Center
01:45PM 38.1444 -78.7417 231° Southwest 454 522 34,000  Level Washington Center
01:47PM 38.0728 -78.8494 230° Southwest 454 522 34,000  Level Washington Center
01:48PM 37.9942 -78.9636 229° Southwest  Level FlightAware Approximate
01:48PM 37.9942 -78.9725 228° Southwest 454 522 34,000  Level Washington Center
01:48PM 37.9114 -79.0978 230° Southwest 459 528 34,000  Level Washington Center
01:49PM 37.8286 -79.2147 228° Southwest 459 528 34,000  Level Washington Center
01:51PM 37.7372 -79.3417 228° Southwest 459 528 34,000  Level Washington Center
01:52PM 37.6589 -79.4453 226° Southwest 454 522 34,000  Level Washington Center
01:52PM 37.5714 -79.5667 228° Southwest 447 514 34,000  Level Washington Center
01:53PM 37.4992 -79.6650 227° Southwest 437 503 34,000  Level Washington Center
01:55PM 37.4158 -79.7808 228° Southwest 434 499 34,000  Level Washington Center
01:55PM 37.4303 -79.7437 228° Southwest  Level FlightAware Approximate
01:56PM 37.3306 -79.8964 227° Southwest 429 494 34,000  Level Washington Center
01:57PM 37.1894 -80.0814 226° Southwest 407 468 34,000  Level Atlanta Center
01:58PM 37.1094 -80.1922 228° Southwest 412 474 34,000  Level Atlanta Center
01:59PM 37.0275 -80.3028 227° Southwest 422 486 34,000  Level Atlanta Center
02:00PM 36.9431 -80.4106 226° Southwest 429 494 34,000  Level Atlanta Center
02:01PM 36.8528 -80.5342 228° Southwest 434 499 34,000  Level Atlanta Center
02:02PM 36.7703 -80.6414 226° Southwest 434 499 34,000  Level Atlanta Center
02:03PM 36.6900 -80.7483 227° Southwest 428 493 34,000  Level Atlanta Center
02:04PM 36.6094 -80.8603 228° Southwest 434 499 34,000  Level Atlanta Center
02:05PM 36.5247 -80.9697 226° Southwest 434 499 34,000  Level Atlanta Center
02:06PM 36.4419 -81.0839 228° Southwest 440 506 34,000  Level Atlanta Center
02:07PM 36.3692 -81.1792 227° Southwest 440 506 34,000  Level Atlanta Center
02:08PM 36.2842 -81.2906 227° Southwest 435 501 34,000  Level Atlanta Center
02:09PM 36.1989 -81.3989 226° Southwest 435 501 34,000  Level Atlanta Center
02:10PM 36.1156 -81.5094 227° Southwest 435 501 34,000  Level Atlanta Center
02:11PM 36.0303 -81.6225 227° Southwest 435 501 34,000  Level Atlanta Center
02:12PM 35.9469 -81.7303 226° Southwest 435 501 34,000  Level Atlanta Center
02:13PM 35.8633 -81.8378 226° Southwest 430 495 34,000  Level Atlanta Center
02:14PM 35.7775 -81.9450 225° Southwest 435 501 34,000  Level Atlanta Center
02:15PM 35.6939 -82.0519 226° Southwest 435 501 34,000  Level Atlanta Center
02:16PM 35.6100 -82.1614 227° Southwest 435 501 34,000  Level Atlanta Center
02:17PM 35.5281 -82.2678 227° Southwest 435 501 34,000 -480 Level Atlanta Center
02:18PM 35.4358 -82.3819 225° Southwest 435 501 33,100 -1,200 Descending Atlanta Center
02:19PM 35.3497 -82.4906 226° Southwest 435 501 31,600 -1,560 Descending Atlanta Center
02:20PM 35.2675 -82.5889 224° Southwest 430 495 30,000 -1,560 Descending Atlanta Center
02:21PM 35.2485 -82.6096 224° Southwest  Level FlightAware Approximate
02:21PM 35.1892 -82.6842 225° Southwest 419 482 28,500  Level Atlanta Center
02:22PM 35.1150 -82.7769 226° Southwest 399 459 27,000 -1,500 Descending Atlanta Center
02:23PM 35.0367 -82.8744 226° Southwest 394 453 25,500 -1,500 Descending Atlanta Center
02:24PM 34.9625 -82.9667 226° Southwest 389 448 24,000 -1,440 Descending Atlanta Center
02:25PM 34.8964 -83.0486 225° Southwest 383 441 22,700 -1,020 Descending Atlanta Center
02:26PM 34.8239 -83.1381 225° Southwest 383 441 22,000 -360 Descending Atlanta Center
02:27PM 34.7350 -83.2222 218° Southwest 396 456 22,000  Level Atlanta Center
02:28PM 34.6456 -83.3042 217° Southwest 407 468 22,000  Level Atlanta Center
02:29PM 34.5606 -83.3881 219° Southwest 407 468 22,000 -360 Level Atlanta Center
02:30PM 34.4733 -83.4719 218° Southwest 402 463 21,300 -1,320 Descending Atlanta Center
02:31PM 34.3819 -83.5606 219° Southwest 394 453 19,400 -1,800 Descending Atlanta Center
02:32PM 34.3008 -83.6389 219° Southwest 389 448 17,700 -1,800 Descending Atlanta Center
02:33PM 34.2217 -83.7172 219° Southwest 381 438 15,900 -1,800 Descending Atlanta Center
02:34PM 34.1406 -83.7928 218° Southwest 370 426 14,100 -960 Descending Atlanta Center
02:35PM 34.0633 -83.8708 220° Southwest 370 426 14,000 -120 Descending Atlanta Center
02:36PM 33.9883 -83.9511 222° Southwest 370 426 13,900 -660 Descending Atlanta Center
02:37PM 33.9133 -84.0314 222° Southwest 370 426 12,700 -960 Descending Atlanta Center
02:38PM 33.8339 -84.1064 218° Southwest 364 419 12,000 -360 Descending Atlanta Center
02:39PM 33.7500 -84.1667 211° Southwest 291 335 12,000  Level Atlanta TRACON
02:40PM 33.6833 -84.2000 203° Southwest 289 333 12,000  Level Atlanta TRACON
02:41PM 33.6333 -84.2500 220° Southwest 262 302 12,000  Level Atlanta TRACON
02:42PM 33.5667 -84.3000 212° Southwest 267 307 12,000 -360 Level Atlanta TRACON
02:43PM 33.5500 -84.3833 257° West 289 333 11,300 -1,200 Descending Atlanta TRACON
02:44PM 33.5500 -84.4833 270° West 307 353 9,600 -1,920 Descending Atlanta TRACON
02:45PM 33.5500 -84.5667 270° West 275 316 7,500 -2,340 Descending Atlanta TRACON
02:46PM 33.5500 -84.6667 270° West 270 311 5,000 -1,500 Descending Atlanta TRACON
02:47PM 33.5500 -84.7500 270° West 239 275 4,500 -900 Descending Atlanta TRACON
02:48PM 33.6167 -84.7500 360° North 217 250 3,200 -780 Descending Atlanta TRACON
02:49PM 33.6333 -84.7000 68° East 169 194 3,000 -120 Descending Atlanta TRACON
02:50PM 33.6167 -84.6500 112° Southeast 164 189 3,000  Level Atlanta TRACON
02:51PM 33.6167 -84.6000 90° East 142 163 3,000 -120 Level Atlanta TRACON
02:52PM 33.6167 -84.5500 90° East 144 166 2,800 -480 Descending Atlanta TRACON
02:53PM 33.6167 -84.5167 90° East 131 151 2,100 -780 Descending Atlanta TRACON
02:54PM 33.6167 -84.4667 90° East 129 148 1,400 -780 Descending Atlanta TRACON
02:56PM 33.6333 -84.4167 64° Northeast  Level FlightAware Approximate
03:03PM 33.6367 -84.4279 64° Northeast  Level Estimated
03:04PM 33.6367 -84.4279 64° Northeast  Level Estimated